createdAt,value
2019-03-04T00:00:37.500Z,1.27
2019-03-04T00:03:08.064Z,1.30
2019-03-04T00:05:38.020Z,1.30
2019-03-04T00:08:07.850Z,1.50
2019-03-04T00:10:37.663Z,1.63
2019-03-04T00:13:08.456Z,1.50
2019-03-04T00:15:38.271Z,1.60
2019-03-04T00:18:08.330Z,1.40
2019-03-04T00:20:38.885Z,1.70
2019-03-04T00:23:08.871Z,1.50
2019-03-04T00:25:38.648Z,1.43
2019-03-04T00:28:08.686Z,1.33
2019-03-04T00:30:38.636Z,1.30
2019-03-04T00:33:09.262Z,1.23
2019-03-04T00:35:39.055Z,1.50
2019-03-04T00:38:08.891Z,1.30
2019-03-04T00:40:39.098Z,1.70
2019-03-04T00:43:09.618Z,1.57
2019-03-04T00:45:39.498Z,1.50
2019-03-04T00:48:10.362Z,1.40
2019-03-04T00:50:40.320Z,2.00
2019-03-04T00:53:10.102Z,1.67
2019-03-04T00:55:39.931Z,1.60
2019-03-04T00:58:09.815Z,1.57
2019-03-04T01:00:39.787Z,1.70
2019-03-04T01:03:09.634Z,1.57
2019-03-04T01:05:40.566Z,1.30
2019-03-04T01:08:10.731Z,1.27
2019-03-04T01:10:40.582Z,1.47
2019-03-04T01:13:10.596Z,1.70
2019-03-04T01:15:41.294Z,1.53
2019-03-04T01:18:11.080Z,1.30
2019-03-04T01:20:41.537Z,1.33
2019-03-04T01:23:11.991Z,1.60
2019-03-04T01:25:41.811Z,1.30
2019-03-04T01:28:11.608Z,1.30
2019-03-04T01:30:43.612Z,1.37
2019-03-04T01:33:13.431Z,1.20
2019-03-04T01:35:43.455Z,1.30
2019-03-04T01:38:13.698Z,1.83
2019-03-04T01:40:43.555Z,1.30
2019-03-04T01:43:13.371Z,1.30
2019-03-04T01:45:43.259Z,1.73
2019-03-04T01:48:13.863Z,1.20
2019-03-04T01:50:44.359Z,1.53
2019-03-04T01:53:14.168Z,1.40
2019-03-04T01:55:43.979Z,1.37
2019-03-04T01:58:13.818Z,1.70
2019-03-04T02:00:44.873Z,1.23
2019-03-04T02:03:14.868Z,1.67
2019-03-04T02:05:44.848Z,1.50
2019-03-04T02:08:15.217Z,1.70
2019-03-04T02:10:45.797Z,1.50
2019-03-04T02:13:15.647Z,1.37
2019-03-04T02:15:46.308Z,1.43
2019-03-04T02:18:16.375Z,1.70
2019-03-04T02:20:46.228Z,1.67
2019-03-04T02:23:16.067Z,1.53
2019-03-04T02:26:10.156Z,1.50
2019-03-04T02:28:40.375Z,1.30
2019-03-04T02:31:10.227Z,1.60
2019-03-04T02:33:41.112Z,1.30
2019-03-04T02:36:11.022Z,1.60
2019-03-04T02:38:40.818Z,1.53
2019-03-04T02:41:10.900Z,1.50
2019-03-04T02:43:40.827Z,1.40
2019-03-04T02:46:10.749Z,1.60
2019-03-04T02:48:40.717Z,1.80
2019-03-04T02:51:11.515Z,1.40
2019-03-04T02:53:41.489Z,1.40
2019-03-04T02:56:11.347Z,1.37
2019-03-04T02:58:41.664Z,1.50
2019-03-04T03:01:11.870Z,1.40
2019-03-04T03:03:41.667Z,1.70
2019-03-04T03:06:13.478Z,1.50
2019-03-04T03:08:43.263Z,1.40
2019-03-04T03:11:13.228Z,1.40
2019-03-04T03:13:43.206Z,1.70
2019-03-04T03:16:14.204Z,1.50
2019-03-04T03:18:44.031Z,1.67
2019-03-04T03:21:14.535Z,1.50
2019-03-04T03:23:44.713Z,1.57
2019-03-04T03:26:14.613Z,1.50
2019-03-04T03:28:44.479Z,1.60
2019-03-04T03:31:14.274Z,1.70
2019-03-04T03:33:44.113Z,1.60
2019-03-04T03:36:13.900Z,1.50
2019-03-04T03:38:44.210Z,1.63
2019-03-04T03:41:14.182Z,1.47
2019-03-04T03:43:44.935Z,1.40
2019-03-04T03:46:14.721Z,1.63
2019-03-04T03:48:44.557Z,1.37
2019-03-04T03:51:14.517Z,1.30
2019-03-04T03:53:45.090Z,1.20
2019-03-04T03:56:14.929Z,1.40
2019-03-04T03:58:45.166Z,1.30
2019-03-04T04:01:15.707Z,1.40
2019-03-04T04:03:45.538Z,1.27
2019-03-04T04:06:15.329Z,1.40
2019-03-04T04:08:45.547Z,1.30
2019-03-04T04:11:15.771Z,1.20
2019-03-04T04:13:45.637Z,1.40
2019-03-04T04:16:16.300Z,1.30
2019-03-04T04:18:46.393Z,1.40
2019-03-04T04:21:16.164Z,1.40
2019-03-04T04:23:46.088Z,1.60
2019-03-04T04:26:22.530Z,1.57
2019-03-04T04:29:07.612Z,1.23
2019-03-04T04:31:37.534Z,1.43
2019-03-04T04:34:07.724Z,1.50
2019-03-04T04:36:38.727Z,1.30
2019-03-04T04:39:09.327Z,1.20
2019-03-04T04:41:39.121Z,1.30
2019-03-04T04:44:09.649Z,1.27
2019-03-04T04:46:59.527Z,1.53
2019-03-04T04:49:31.763Z,1.40
2019-03-04T04:52:01.890Z,1.17
2019-03-04T04:54:32.428Z,1.40
2019-03-04T04:57:02.277Z,1.30
2019-03-04T04:59:32.096Z,1.40
2019-03-04T05:02:02.664Z,1.50
2019-03-04T05:04:32.611Z,1.30
2019-03-04T05:07:03.031Z,1.60
2019-03-04T05:09:33.037Z,1.30
2019-03-04T05:12:02.879Z,1.30
2019-03-04T05:14:33.633Z,1.27
2019-03-04T05:17:03.438Z,1.00
2019-03-04T05:19:33.273Z,1.40
2019-03-04T05:22:03.169Z,1.33
2019-03-04T05:24:33.816Z,1.47
2019-03-04T05:27:03.899Z,1.37
2019-03-04T05:29:34.610Z,1.23
2019-03-04T05:32:04.560Z,1.40
2019-03-04T05:34:35.045Z,1.30
2019-03-04T05:37:04.978Z,1.23
2019-03-04T05:39:34.786Z,1.13
2019-03-04T05:42:04.610Z,1.33
2019-03-04T05:44:35.249Z,1.20
2019-03-04T05:47:05.315Z,1.10
2019-03-04T05:49:35.370Z,1.20
2019-03-04T05:52:06.083Z,1.40
2019-03-04T05:54:35.922Z,1.43
2019-03-04T05:57:05.757Z,1.60
2019-03-04T05:59:36.357Z,1.37
2019-03-04T06:02:12.926Z,1.47
2019-03-04T06:04:45.122Z,1.30
2019-03-04T06:07:36.679Z,1.27
2019-03-04T06:10:08.814Z,1.30
2019-03-04T06:12:39.087Z,1.77
2019-03-04T06:15:12.067Z,1.47
2019-03-04T06:17:42.458Z,1.63
2019-03-04T06:20:13.504Z,1.43
2019-03-04T06:22:43.308Z,1.23
2019-03-04T06:25:18.253Z,1.37
2019-03-04T06:27:48.144Z,1.23
2019-03-04T06:30:20.261Z,1.40
2019-03-04T06:32:50.064Z,1.20
2019-03-04T06:35:19.945Z,1.30
2019-03-04T06:37:50.277Z,1.40
2019-03-04T06:40:20.670Z,1.33
2019-03-04T06:42:50.520Z,1.43
2019-03-04T06:45:20.375Z,1.30
2019-03-04T06:47:50.157Z,1.27
2019-03-04T06:51:03.291Z,1.30
2019-03-04T06:54:03.591Z,1.20
2019-03-04T06:56:46.858Z,1.10
2019-03-04T06:59:51.336Z,1.10
2019-03-04T07:02:21.243Z,1.20
2019-03-04T07:05:28.484Z,1.37
2019-03-04T07:07:58.320Z,1.10
2019-03-04T07:10:28.424Z,1.30
2019-03-04T07:12:59.373Z,1.33
2019-03-04T07:15:29.250Z,1.23
2019-03-04T07:18:03.732Z,1.07
2019-03-04T07:20:34.475Z,1.20
2019-03-04T07:23:05.183Z,1.60
2019-03-04T07:25:36.214Z,1.20
2019-03-04T07:28:06.138Z,1.10
2019-03-04T07:30:36.672Z,1.30
2019-03-04T07:33:06.487Z,1.10
2019-03-04T07:35:36.355Z,1.37
2019-03-04T07:38:37.051Z,1.03
2019-03-04T07:41:07.521Z,0.87
2019-03-04T07:43:37.332Z,1.43
2019-03-04T07:46:07.800Z,1.10
2019-03-04T07:48:38.113Z,1.00
2019-03-04T07:51:15.126Z,1.20
2019-03-04T07:53:46.736Z,1.27
2019-03-04T07:56:17.670Z,0.97
2019-03-04T07:58:48.179Z,1.10
2019-03-04T08:01:18.074Z,1.10
2019-03-04T08:03:47.875Z,1.17
2019-03-04T08:06:17.995Z,1.50
2019-03-04T08:09:40.548Z,1.07
2019-03-04T08:13:02.407Z,1.10
2019-03-04T08:15:41.924Z,1.10
2019-03-04T08:18:12.417Z,1.30
2019-03-04T08:20:42.263Z,1.20
2019-03-04T08:23:12.146Z,1.37
2019-03-04T08:25:42.884Z,1.30
2019-03-04T08:28:14.536Z,1.17
2019-03-04T08:30:45.319Z,1.10
2019-03-04T08:33:15.974Z,1.23
2019-03-04T08:35:45.813Z,0.83
2019-03-04T08:38:15.722Z,1.03
2019-03-04T08:40:45.959Z,1.10
2019-03-04T08:43:15.813Z,1.27
2019-03-04T08:45:45.595Z,1.07
2019-03-04T08:48:15.433Z,1.10
2019-03-04T08:50:45.249Z,1.10
2019-03-04T08:53:15.147Z,1.07
2019-03-04T08:55:45.615Z,1.37
2019-03-04T08:58:15.648Z,1.23
2019-03-04T09:00:45.493Z,0.90
2019-03-04T09:03:15.427Z,1.13
2019-03-04T09:05:45.255Z,1.73
2019-03-04T09:08:15.082Z,1.10
2019-03-04T09:10:44.909Z,1.10
2019-03-04T09:13:14.734Z,1.50
2019-03-04T09:15:44.529Z,1.13
2019-03-04T09:18:14.372Z,1.10
2019-03-04T09:20:44.769Z,1.27
2019-03-04T09:23:14.592Z,1.17
2019-03-04T09:25:48.358Z,1.47
2019-03-04T09:28:18.263Z,1.30
2019-03-04T09:30:48.324Z,1.47
2019-03-04T09:33:18.518Z,1.00
2019-03-04T09:35:48.344Z,1.40
2019-03-04T09:38:18.234Z,1.00
2019-03-04T09:40:48.410Z,1.00
2019-03-04T09:43:19.494Z,0.90
2019-03-04T09:45:49.412Z,0.70
2019-03-04T09:48:22.005Z,0.87
2019-03-04T09:50:52.373Z,0.80
2019-03-04T09:53:22.504Z,0.93
2019-03-04T09:55:53.937Z,0.87
2019-03-04T09:58:25.928Z,0.70
2019-03-04T10:01:37.925Z,0.60
2019-03-04T10:04:37.643Z,0.73
2019-03-04T10:08:03.623Z,0.50
2019-03-04T10:10:49.799Z,0.50
2019-03-04T10:13:41.108Z,0.40
2019-03-04T10:16:39.387Z,0.67
2019-03-04T10:19:59.780Z,0.70
2019-03-04T10:22:56.110Z,0.40
2019-03-04T10:25:48.149Z,0.70
2019-03-04T10:28:53.430Z,0.73
2019-03-04T10:32:03.573Z,0.50
2019-03-04T10:35:04.912Z,0.43
2019-03-04T10:38:00.093Z,0.60
2019-03-04T10:41:20.001Z,0.60
2019-03-04T10:44:37.846Z,0.40
2019-03-04T10:47:07.412Z,0.60
2019-03-04T10:49:37.191Z,0.50
2019-03-04T10:52:07.195Z,0.40
2019-03-04T10:54:37.230Z,0.67
2019-03-04T10:57:07.295Z,0.40
2019-03-04T10:59:37.536Z,0.40
2019-03-04T11:02:07.497Z,0.60
2019-03-04T11:04:37.359Z,0.47
2019-03-04T11:07:07.164Z,0.77
2019-03-04T11:09:37.041Z,0.50
2019-03-04T11:12:07.552Z,0.40
2019-03-04T11:14:37.418Z,0.50
2019-03-04T11:17:07.513Z,0.60
2019-03-04T11:19:37.514Z,0.37
2019-03-04T11:22:07.480Z,0.40
2019-03-04T11:24:37.488Z,0.53
2019-03-04T11:27:07.273Z,0.60
2019-03-04T11:29:37.362Z,0.60
2019-03-04T11:32:08.278Z,0.47
2019-03-04T11:34:38.388Z,0.50
2019-03-04T11:37:08.344Z,0.60
2019-03-04T11:40:04.389Z,0.60
2019-03-04T11:42:34.510Z,0.70
2019-03-04T11:45:05.561Z,0.40
2019-03-04T11:47:35.434Z,0.70
2019-03-04T11:50:08.155Z,0.47
2019-03-04T11:52:37.950Z,1.00
2019-03-04T11:55:09.149Z,0.70
2019-03-04T11:57:41.147Z,0.63
2019-03-04T12:00:16.305Z,0.43
2019-03-04T12:02:46.116Z,0.60
2019-03-04T12:05:15.983Z,0.80
2019-03-04T12:07:45.863Z,0.70
2019-03-04T12:10:15.881Z,0.30
2019-03-04T12:12:45.646Z,0.70
2019-03-04T12:15:16.611Z,0.53
2019-03-04T12:17:46.460Z,0.60
2019-03-04T12:20:16.429Z,0.50
2019-03-04T12:22:46.228Z,0.50
2019-03-04T12:25:16.002Z,0.60
2019-03-04T12:27:45.910Z,0.50
2019-03-04T12:30:17.912Z,0.90
2019-03-04T12:32:47.788Z,0.67
2019-03-04T12:35:17.636Z,0.80
2019-03-04T12:37:48.369Z,0.60
2019-03-04T12:40:18.669Z,0.90
2019-03-04T12:42:48.657Z,0.70
2019-03-04T12:45:18.441Z,1.00
2019-03-04T12:47:48.465Z,0.90
2019-03-04T12:50:20.963Z,0.60
2019-03-04T12:52:51.060Z,1.03
2019-03-04T12:55:21.133Z,0.93
2019-03-04T12:57:52.004Z,0.73
2019-03-04T13:00:22.798Z,0.70
2019-03-04T13:02:57.468Z,1.07
2019-03-04T13:05:24.624Z,0.73
2019-03-04T13:07:55.123Z,0.77
2019-03-04T13:10:25.564Z,0.83
2019-03-04T13:12:56.295Z,0.70
2019-03-04T13:15:26.237Z,1.10
2019-03-04T13:17:56.307Z,0.90
2019-03-04T13:20:26.327Z,1.17
2019-03-04T13:22:56.742Z,0.80
2019-03-04T13:25:26.583Z,0.97
2019-03-04T13:27:56.488Z,0.80
2019-03-04T13:30:26.244Z,0.80
2019-03-04T13:32:56.025Z,1.00
2019-03-04T13:35:25.889Z,1.10
2019-03-04T13:37:55.777Z,0.97
2019-03-04T13:40:26.698Z,1.00
2019-03-04T13:42:56.905Z,1.10
2019-03-04T13:45:27.504Z,0.90
2019-03-04T13:47:57.421Z,0.90
2019-03-04T13:50:27.483Z,0.80
2019-03-04T13:52:59.910Z,0.87
2019-03-04T13:55:29.804Z,0.87
2019-03-04T13:58:00.082Z,0.90
2019-03-04T14:00:30.323Z,0.97
2019-03-04T14:03:01.020Z,0.87
2019-03-04T14:05:30.806Z,1.13
2019-03-04T14:08:01.048Z,0.87
2019-03-04T14:10:33.269Z,2.30
2019-03-04T14:13:03.481Z,1.70
2019-03-04T14:15:38.995Z,1.17
2019-03-04T14:18:08.889Z,1.17
2019-03-04T14:20:38.655Z,0.90
2019-03-04T14:23:09.312Z,1.03
2019-03-04T14:25:40.124Z,1.00
2019-03-04T14:28:10.229Z,0.90
2019-03-04T14:30:40.089Z,1.10
2019-03-04T14:33:10.066Z,1.13
2019-03-04T14:35:43.812Z,1.20
2019-03-04T14:38:13.819Z,1.00
2019-03-04T14:40:43.787Z,0.83
2019-03-04T14:43:13.706Z,1.07
2019-03-04T14:45:44.304Z,0.90
2019-03-04T14:48:14.206Z,1.00
2019-03-04T14:50:46.689Z,0.77
2019-03-04T14:53:17.115Z,0.97
2019-03-04T14:55:46.884Z,1.10
2019-03-04T14:58:16.745Z,1.20
2019-03-04T15:00:50.053Z,1.27
2019-03-04T15:03:23.596Z,1.50
2019-03-04T15:05:51.567Z,1.30
2019-03-04T15:08:21.447Z,1.43
2019-03-04T15:10:51.217Z,1.13
2019-03-04T15:13:21.054Z,1.10
2019-03-04T15:16:00.586Z,0.93
2019-03-04T15:18:22.581Z,1.30
2019-03-04T15:20:52.785Z,1.10
2019-03-04T15:23:22.923Z,1.03
2019-03-04T15:25:53.402Z,0.83
2019-03-04T15:28:23.343Z,1.00
2019-03-04T15:30:55.271Z,0.90
2019-03-04T15:33:25.673Z,0.90
2019-03-04T15:35:55.596Z,1.10
2019-03-04T15:38:25.648Z,1.10
2019-03-04T15:40:55.857Z,1.10
2019-03-04T15:43:25.682Z,2.23
2019-03-04T15:45:55.806Z,1.70
2019-03-04T15:48:28.512Z,1.60
2019-03-04T15:50:58.773Z,1.10
2019-03-04T15:53:29.103Z,1.43
2019-03-04T15:55:59.234Z,1.03
2019-03-04T15:58:29.054Z,1.13
2019-03-04T16:00:58.942Z,0.87
2019-03-04T16:03:28.951Z,0.77
2019-03-04T16:05:59.178Z,1.40
2019-03-04T16:08:29.020Z,0.90
2019-03-04T16:10:59.109Z,0.73
2019-03-04T16:13:29.339Z,0.90
2019-03-04T16:15:59.120Z,0.80
2019-03-04T16:18:28.965Z,0.90
2019-03-04T16:20:59.254Z,0.90
2019-03-04T16:23:29.861Z,0.90
2019-03-04T16:26:03.453Z,0.87
2019-03-04T16:28:33.535Z,0.90
2019-03-04T16:31:03.496Z,1.20
2019-03-04T16:33:33.352Z,0.87
2019-03-04T16:36:03.573Z,0.70
2019-03-04T16:38:33.533Z,1.00
2019-03-04T16:41:03.905Z,1.10
2019-03-04T16:43:34.313Z,0.70
2019-03-04T16:46:04.095Z,0.97
2019-03-04T16:48:33.959Z,0.50
2019-03-04T16:51:04.042Z,0.60
2019-03-04T16:53:34.658Z,0.40
2019-03-04T16:56:04.445Z,0.70
2019-03-04T16:58:34.338Z,0.47
2019-03-04T17:01:04.647Z,0.37
2019-03-04T17:03:34.589Z,0.30
2019-03-04T17:06:04.965Z,0.23
2019-03-04T17:08:34.802Z,0.33
2019-03-04T17:11:05.471Z,0.20
2019-03-04T17:13:36.024Z,0.50
2019-03-04T17:16:06.044Z,0.60
2019-03-04T17:18:36.401Z,0.53
2019-03-04T17:21:06.537Z,0.90
2019-03-04T17:23:36.498Z,0.60
2019-03-04T17:26:06.298Z,0.50
2019-03-04T17:28:36.541Z,0.30
2019-03-04T17:31:06.765Z,0.40
2019-03-04T17:33:36.583Z,0.30
2019-03-04T17:36:06.711Z,0.20
2019-03-04T17:38:37.332Z,0.30
2019-03-04T17:41:07.152Z,0.30
2019-03-04T17:43:37.000Z,0.70
2019-03-04T17:46:07.766Z,0.20
2019-03-04T17:48:37.589Z,0.20
2019-03-04T17:51:07.610Z,0.50
2019-03-04T17:53:37.951Z,0.40
2019-03-04T17:56:07.760Z,0.50
2019-03-04T17:58:37.580Z,0.60
2019-03-04T18:01:07.885Z,0.50
2019-03-04T18:03:38.569Z,0.50
2019-03-04T18:06:08.452Z,0.60
2019-03-04T18:08:38.951Z,0.40
2019-03-04T18:11:09.570Z,0.60
2019-03-04T18:13:39.342Z,0.50
2019-03-04T18:16:09.212Z,0.60
2019-03-04T18:18:39.047Z,0.53
2019-03-04T18:21:08.958Z,0.60
2019-03-04T18:23:38.799Z,0.53
2019-03-04T18:26:12.808Z,0.50
2019-03-04T18:29:14.845Z,0.53
2019-03-04T18:31:58.443Z,0.60
2019-03-04T18:35:07.937Z,0.70
2019-03-04T18:38:08.770Z,0.60
2019-03-04T18:41:11.379Z,0.67
2019-03-04T18:44:10.118Z,1.00
2019-03-04T18:47:10.758Z,1.07
2019-03-04T18:49:40.693Z,0.80
2019-03-04T18:52:11.284Z,1.00
2019-03-04T18:54:41.698Z,0.77
2019-03-04T18:57:11.783Z,0.80
2019-03-04T18:59:41.912Z,0.80
2019-03-04T19:02:12.148Z,0.60
2019-03-04T19:04:41.969Z,0.97
2019-03-04T19:07:11.955Z,0.70
2019-03-04T19:09:41.858Z,1.00
2019-03-04T19:12:11.636Z,0.77
2019-03-04T19:14:41.489Z,0.47
2019-03-04T19:17:11.454Z,0.43
2019-03-04T19:19:41.714Z,0.60
2019-03-04T19:22:11.970Z,0.57
2019-03-04T19:24:42.652Z,0.80
2019-03-04T19:27:12.888Z,0.70
2019-03-04T19:29:43.464Z,0.70
2019-03-04T19:32:13.345Z,0.87
2019-03-04T19:34:43.098Z,0.80
2019-03-04T19:37:13.230Z,0.60
2019-03-04T19:39:43.509Z,0.67
2019-03-04T19:42:13.488Z,0.63
2019-03-04T19:44:43.811Z,0.70
2019-03-04T19:47:14.123Z,0.47
2019-03-04T19:49:43.935Z,0.73
2019-03-04T19:52:14.033Z,0.87
2019-03-04T19:54:44.222Z,0.57
2019-03-04T19:57:14.693Z,0.77
2019-03-04T19:59:45.574Z,0.63
2019-03-04T20:02:15.443Z,0.60
2019-03-04T20:04:45.263Z,0.60
2019-03-04T20:07:15.337Z,0.60
2019-03-04T20:09:46.405Z,0.80
2019-03-04T20:12:16.257Z,0.53
2019-03-04T20:14:46.537Z,0.83
2019-03-04T20:17:17.238Z,0.87
2019-03-04T20:19:47.053Z,0.90
2019-03-04T20:22:17.317Z,1.00
2019-03-04T20:24:49.067Z,1.00
2019-03-04T20:27:19.464Z,1.20
2019-03-04T20:29:49.832Z,1.20
2019-03-04T20:32:20.560Z,1.27
2019-03-04T20:34:50.408Z,1.10
2019-03-04T20:37:20.342Z,0.90
2019-03-04T20:39:51.035Z,1.47
2019-03-04T20:42:21.360Z,1.30
2019-03-04T20:44:51.927Z,1.10
2019-03-04T20:47:24.274Z,1.50
2019-03-04T20:49:54.247Z,1.30
2019-03-04T20:52:24.263Z,1.60
2019-03-04T20:54:55.541Z,1.60
2019-03-04T20:57:25.614Z,1.80
2019-03-04T20:59:57.076Z,2.17
2019-03-04T21:02:27.108Z,2.57
2019-03-04T21:04:57.091Z,2.50
2019-03-04T21:07:27.186Z,2.13
2019-03-04T21:09:58.228Z,2.50
2019-03-04T21:12:32.470Z,2.20
2019-03-04T21:15:04.066Z,2.00
2019-03-04T21:17:34.332Z,2.00
2019-03-04T21:20:05.993Z,1.93
2019-03-04T21:22:36.628Z,2.43
2019-03-04T21:25:06.816Z,2.00
2019-03-04T21:27:36.896Z,2.00
2019-03-04T21:30:47.719Z,1.90
2019-03-04T21:33:49.029Z,1.77
2019-03-04T21:37:00.781Z,1.80
2019-03-04T21:39:33.294Z,2.03
2019-03-04T21:42:23.242Z,1.77
2019-03-04T21:45:32.250Z,1.50
2019-03-04T21:48:13.707Z,1.57
2019-03-04T21:51:37.503Z,1.60
2019-03-04T21:53:58.751Z,1.20
2019-03-04T21:56:59.300Z,1.40
2019-03-04T21:59:29.405Z,1.37
2019-03-04T22:02:11.433Z,1.23
2019-03-04T22:04:43.221Z,1.10
2019-03-04T22:07:13.515Z,1.40
2019-03-04T22:09:45.807Z,1.10
2019-03-04T22:12:16.051Z,1.17
2019-03-04T22:14:46.001Z,1.33
2019-03-04T22:17:16.591Z,1.23
2019-03-04T22:19:46.935Z,1.47
2019-03-04T22:22:16.924Z,1.10
2019-03-04T22:24:48.598Z,1.23
2019-03-04T22:27:18.662Z,1.13
2019-03-04T22:29:48.816Z,1.37
2019-03-04T22:32:19.965Z,1.37
2019-03-04T22:34:51.650Z,1.50
2019-03-04T22:37:21.810Z,1.37
2019-03-04T22:39:51.836Z,1.20
2019-03-04T22:42:24.487Z,1.57
2019-03-04T22:44:54.381Z,1.40
2019-03-04T22:47:24.401Z,1.30
2019-03-04T22:49:56.075Z,1.57
2019-03-04T22:52:26.283Z,1.07
2019-03-04T22:54:57.339Z,1.30
2019-03-04T22:57:28.291Z,1.27
2019-03-04T22:59:58.923Z,1.23
2019-03-04T23:02:29.627Z,1.10
2019-03-04T23:05:05.053Z,1.20
2019-03-04T23:07:47.187Z,1.03
2019-03-04T23:10:24.711Z,1.00
2019-03-04T23:13:14.887Z,0.90
2019-03-04T23:15:47.233Z,1.40
2019-03-04T23:18:17.972Z,0.93
2019-03-04T23:20:47.799Z,1.10
2019-03-04T23:23:19.152Z,1.30
2019-03-04T23:25:49.340Z,1.30
2019-03-04T23:28:19.340Z,1.47
2019-03-04T23:30:49.246Z,1.30
2019-03-04T23:33:20.094Z,1.03
2019-03-04T23:35:50.345Z,1.10
2019-03-04T23:38:20.171Z,0.90
2019-03-04T23:40:49.983Z,1.10
2019-03-04T23:43:20.525Z,1.27
2019-03-04T23:45:51.184Z,1.37
2019-03-04T23:48:21.108Z,1.20
2019-03-04T23:50:52.065Z,1.20
2019-03-04T23:53:21.915Z,0.97
2019-03-04T23:55:51.760Z,1.10
2019-03-04T23:58:22.572Z,1.13
